createdAt,value
2017-01-18T00:00:56.894Z,-5.47
2017-01-18T00:01:56.871Z,-5.48
2017-01-18T00:02:56.852Z,-5.56
2017-01-18T00:03:56.829Z,-5.52
2017-01-18T00:04:56.809Z,-5.62
2017-01-18T00:05:56.789Z,-5.62
2017-01-18T00:06:57.166Z,-5.73
2017-01-18T00:07:56.747Z,-5.73
2017-01-18T00:08:56.730Z,-5.79
2017-01-18T00:09:56.710Z,-5.99
2017-01-18T00:10:56.690Z,-5.92
2017-01-18T00:11:56.664Z,-6.01
2017-01-18T00:12:56.643Z,-6.07
2017-01-18T00:13:56.624Z,-6.1
2017-01-18T00:14:56.606Z,-6.3
2017-01-18T00:15:56.581Z,-6.41
2017-01-18T00:16:56.566Z,-6.37
2017-01-18T00:17:56.542Z,-6.44
2017-01-18T00:18:56.522Z,-6.55
2017-01-18T00:19:56.501Z,-6.6
2017-01-18T00:20:56.487Z,-6.71
2017-01-18T00:21:56.467Z,-6.78
2017-01-18T00:22:56.441Z,-6.92
2017-01-18T00:23:56.430Z,-6.87
2017-01-18T00:24:56.399Z,-6.88
2017-01-18T00:25:56.757Z,-6.94
2017-01-18T00:26:56.361Z,-7.01
2017-01-18T00:27:56.335Z,-7.05
2017-01-18T00:28:56.317Z,-7.13
2017-01-18T00:29:56.298Z,-7.1
2017-01-18T00:30:56.274Z,-7.27
2017-01-18T00:31:56.253Z,-7.26
2017-01-18T00:32:56.235Z,-7.33
2017-01-18T00:33:56.210Z,-7.48
2017-01-18T00:34:56.194Z,-7.44
2017-01-18T00:35:56.172Z,-7.45
2017-01-18T00:36:56.152Z,-7.44
2017-01-18T00:37:56.127Z,-7.42
2017-01-18T00:38:56.107Z,-7.48
2017-01-18T00:39:56.084Z,-7.44
2017-01-18T00:40:56.063Z,-7.45
2017-01-18T00:41:56.048Z,-7.48
2017-01-18T00:42:56.025Z,-7.49
2017-01-18T00:43:56.002Z,-7.51
2017-01-18T00:44:56.015Z,-7.28
2017-01-18T00:45:55.962Z,-7.28
2017-01-18T00:46:55.939Z,-7.37
2017-01-18T00:47:55.920Z,-7.26
2017-01-18T00:48:55.896Z,-7.3
2017-01-18T00:49:55.881Z,-7.24
2017-01-18T00:50:55.856Z,-7.12
2017-01-18T00:51:55.831Z,-7.09
2017-01-18T00:52:55.810Z,-7.13
2017-01-18T00:53:55.789Z,-7.12
2017-01-18T00:54:55.770Z,-7.05
2017-01-18T00:55:55.749Z,-7.09
2017-01-18T00:56:55.726Z,-7.06
2017-01-18T00:57:55.705Z,-6.95
2017-01-18T00:58:55.687Z,-6.98
2017-01-18T00:59:55.663Z,-6.98
2017-01-18T01:00:55.644Z,-7.05
2017-01-18T01:01:55.621Z,-7.05
2017-01-18T01:02:55.604Z,-7.02
2017-01-18T01:03:55.581Z,-6.94
2017-01-18T01:04:55.562Z,-6.97
2017-01-18T01:05:55.536Z,-6.87
2017-01-18T01:06:55.513Z,-6.78
2017-01-18T01:07:55.490Z,-6.78
2017-01-18T01:08:55.471Z,-6.74
2017-01-18T01:09:55.460Z,-6.76
2017-01-18T01:10:55.436Z,-6.71
2017-01-18T01:11:55.415Z,-6.8
2017-01-18T01:12:55.388Z,-6.73
2017-01-18T01:13:55.370Z,-6.8
2017-01-18T01:14:55.345Z,-6.71
2017-01-18T01:15:55.326Z,-6.7
2017-01-18T01:16:55.304Z,-6.73
2017-01-18T01:17:55.284Z,-6.68
2017-01-18T01:18:55.263Z,-6.7
2017-01-18T01:19:55.239Z,-6.7
2017-01-18T01:20:55.220Z,-6.73
2017-01-18T01:21:55.199Z,-6.77
2017-01-18T01:22:55.182Z,-6.78
2017-01-18T01:23:55.557Z,-6.77
2017-01-18T01:24:55.136Z,-6.8
2017-01-18T01:25:55.115Z,-6.87
2017-01-18T01:26:55.095Z,-6.88
2017-01-18T01:27:55.071Z,-6.87
2017-01-18T01:28:55.083Z,-6.84
2017-01-18T01:29:55.060Z,-6.95
2017-01-18T01:30:55.038Z,-6.95
2017-01-18T01:31:55.021Z,-6.97
2017-01-18T01:32:54.994Z,-6.97
2017-01-18T01:33:54.976Z,-7.1
2017-01-18T01:34:54.955Z,-7.13
2017-01-18T01:35:54.935Z,-7.1
2017-01-18T01:36:54.911Z,-7.19
2017-01-18T01:37:54.891Z,-7.34
2017-01-18T01:38:54.872Z,-7.33
2017-01-18T01:39:54.849Z,-7.4
2017-01-18T01:40:54.828Z,-7.27
2017-01-18T01:41:54.813Z,-7.34
2017-01-18T01:42:54.783Z,-7.37
2017-01-18T01:43:54.762Z,-7.27
2017-01-18T01:44:54.741Z,-7.28
2017-01-18T01:45:54.728Z,-7.24
2017-01-18T01:46:54.729Z,-7.28
2017-01-18T01:47:54.679Z,-7.26
2017-01-18T01:48:54.656Z,-7.26
2017-01-18T01:49:54.639Z,-7.22
2017-01-18T01:50:54.617Z,-7.2
2017-01-18T01:51:54.595Z,-7.17
2017-01-18T01:52:54.575Z,-7.12
2017-01-18T01:53:54.551Z,-7.07
2017-01-18T01:54:54.535Z,-7.05
2017-01-18T01:55:54.511Z,-7.07
2017-01-18T01:56:54.484Z,-7.06
2017-01-18T01:57:54.465Z,-7.15
2017-01-18T01:58:54.445Z,-7.05
2017-01-18T01:59:54.422Z,-7.09
2017-01-18T02:00:54.402Z,-7.12
2017-01-18T02:01:54.379Z,-7.1
2017-01-18T02:02:54.356Z,-7.06
2017-01-18T02:03:54.743Z,-7.02
2017-01-18T02:04:54.319Z,-6.97
2017-01-18T02:05:54.315Z,-6.97
2017-01-18T02:06:54.272Z,-7.05
2017-01-18T02:07:54.254Z,-7.02
2017-01-18T02:08:54.233Z,-6.94
2017-01-18T02:09:54.209Z,-6.94
2017-01-18T02:10:54.193Z,-6.91
2017-01-18T02:11:54.172Z,-6.92
2017-01-18T02:12:54.148Z,-6.92
2017-01-18T02:13:54.123Z,-6.94
2017-01-18T02:14:54.103Z,-6.88
2017-01-18T02:15:54.080Z,-6.94
2017-01-18T02:16:54.065Z,-6.97
2017-01-18T02:17:54.038Z,-6.95
2017-01-18T02:18:54.020Z,-6.88
2017-01-18T02:19:53.999Z,-7.01
2017-01-18T02:20:54.005Z,-6.95
2017-01-18T02:21:53.955Z,-6.94
2017-01-18T02:22:53.933Z,-6.97
2017-01-18T02:23:53.913Z,-7.16
2017-01-18T02:24:53.890Z,-7.12
2017-01-18T02:25:53.975Z,-7.19
2017-01-18T02:26:53.851Z,-7.12
2017-01-18T02:27:53.833Z,-7.15
2017-01-18T02:28:53.843Z,-7.27
2017-01-18T02:29:53.785Z,-7.26
2017-01-18T02:30:53.768Z,-7.28
2017-01-18T02:31:53.743Z,-7.27
2017-01-18T02:32:53.725Z,-7.37
2017-01-18T02:33:53.699Z,-7.38
2017-01-18T02:34:53.678Z,-7.4
2017-01-18T02:35:53.659Z,-7.55
2017-01-18T02:36:53.634Z,-7.65
2017-01-18T02:37:53.615Z,-7.63
2017-01-18T02:38:53.594Z,-7.62
2017-01-18T02:39:53.571Z,-7.59
2017-01-18T02:40:53.569Z,-7.56
2017-01-18T02:41:53.532Z,-7.73
2017-01-18T02:42:53.510Z,-7.76
2017-01-18T02:43:53.486Z,-7.69
2017-01-18T02:44:53.465Z,-7.72
2017-01-18T02:45:53.445Z,-7.8
2017-01-18T02:46:53.423Z,-7.76
2017-01-18T02:47:53.399Z,-7.8
2017-01-18T02:48:53.379Z,-7.77
2017-01-18T02:49:53.364Z,-7.76
2017-01-18T02:50:53.344Z,-7.86
2017-01-18T02:51:53.330Z,-7.93
2017-01-18T02:52:53.300Z,-8.03
2017-01-18T02:53:53.279Z,-8.12
2017-01-18T02:54:53.259Z,-8.18
2017-01-18T02:55:53.235Z,-8.28
2017-01-18T02:56:53.213Z,-8.38
2017-01-18T02:57:53.194Z,-8.49
2017-01-18T02:58:53.169Z,-8.46
2017-01-18T02:59:53.150Z,-8.49
2017-01-18T03:00:53.128Z,-8.63
2017-01-18T03:01:53.108Z,-8.76
2017-01-18T03:02:53.084Z,-8.81
2017-01-18T03:03:53.062Z,-8.9
2017-01-18T03:04:53.040Z,-9.04
2017-01-18T03:05:53.018Z,-9.05
2017-01-18T03:06:52.996Z,-9.19
2017-01-18T03:07:52.978Z,-9.37
2017-01-18T03:08:52.952Z,-9.36
2017-01-18T03:09:52.931Z,-9.45
2017-01-18T03:10:52.918Z,-9.5
2017-01-18T03:11:52.888Z,-9.59
2017-01-18T03:12:52.868Z,-9.44
2017-01-18T03:13:52.851Z,-9.56
2017-01-18T03:14:52.823Z,-9.57
2017-01-18T03:15:52.803Z,-9.65
2017-01-18T03:16:52.782Z,-9.66
2017-01-18T03:17:52.757Z,-9.65
2017-01-18T03:18:52.734Z,-9.62
2017-01-18T03:19:52.710Z,-9.59
2017-01-18T03:20:52.691Z,-9.52
2017-01-18T03:21:52.671Z,-9.57
2017-01-18T03:22:52.644Z,-9.5
2017-01-18T03:23:52.624Z,-9.45
2017-01-18T03:24:52.604Z,-9.38
2017-01-18T03:25:52.580Z,-9.41
2017-01-18T03:26:52.556Z,-9.4
2017-01-18T03:27:52.564Z,-9.34
2017-01-18T03:28:52.514Z,-9.2
2017-01-18T03:29:52.488Z,-9.26
2017-01-18T03:30:52.468Z,-9.06
2017-01-18T03:31:52.447Z,-9.02
2017-01-18T03:32:52.426Z,-9.02
2017-01-18T03:33:52.402Z,-8.94
2017-01-18T03:34:52.379Z,-8.88
2017-01-18T03:35:52.364Z,-8.9
2017-01-18T03:36:52.335Z,-8.84
2017-01-18T03:37:52.314Z,-8.84
2017-01-18T03:38:52.293Z,-8.77
2017-01-18T03:39:52.270Z,-8.67
2017-01-18T03:40:52.247Z,-8.67
2017-01-18T03:41:52.223Z,-8.62
2017-01-18T03:42:52.204Z,-8.52
2017-01-18T03:43:52.179Z,-8.42
2017-01-18T03:44:52.156Z,-8.51
2017-01-18T03:45:52.134Z,-8.38
2017-01-18T03:46:52.113Z,-8.33
2017-01-18T03:47:52.089Z,-8.24
2017-01-18T03:48:52.067Z,-8.21
2017-01-18T03:49:52.047Z,-8.12
2017-01-18T03:50:52.022Z,-8.07
2017-01-18T03:51:52.002Z,-8.05
2017-01-18T03:52:51.980Z,-7.96
2017-01-18T03:53:51.960Z,-7.99
2017-01-18T03:54:51.938Z,-7.84
2017-01-18T03:55:51.910Z,-7.91
2017-01-18T03:56:51.891Z,-7.8
2017-01-18T03:57:51.873Z,-7.83
2017-01-18T03:58:51.848Z,-7.75
2017-01-18T03:59:51.824Z,-7.75
2017-01-18T04:00:51.807Z,-7.75
2017-01-18T04:01:51.786Z,-7.8
2017-01-18T04:02:51.760Z,-7.72
2017-01-18T04:03:51.740Z,-7.72
2017-01-18T04:04:51.717Z,-7.66
2017-01-18T04:05:52.089Z,-7.62
2017-01-18T04:06:51.672Z,-7.72
2017-01-18T04:07:51.649Z,-7.7
2017-01-18T04:08:51.630Z,-7.62
2017-01-18T04:09:51.610Z,-7.59
2017-01-18T04:10:51.585Z,-7.56
2017-01-18T04:11:51.570Z,-7.55
2017-01-18T04:12:51.543Z,-7.7
2017-01-18T04:13:51.521Z,-7.72
2017-01-18T04:14:51.499Z,-7.72
2017-01-18T04:15:51.477Z,-7.58
2017-01-18T04:16:51.456Z,-7.73
2017-01-18T04:17:51.434Z,-7.59
2017-01-18T04:18:51.409Z,-7.55
2017-01-18T04:19:51.394Z,-7.59
2017-01-18T04:20:51.369Z,-7.62
2017-01-18T04:21:51.345Z,-7.62
2017-01-18T04:22:51.325Z,-7.7
2017-01-18T04:23:51.302Z,-7.69
2017-01-18T04:24:51.279Z,-7.69
2017-01-18T04:25:51.258Z,-7.72
2017-01-18T04:26:51.231Z,-7.72
2017-01-18T04:27:51.217Z,-7.73
2017-01-18T04:28:51.194Z,-7.63
2017-01-18T04:29:51.272Z,-7.73
2017-01-18T04:30:51.155Z,-7.58
2017-01-18T04:31:51.128Z,-7.75
2017-01-18T04:32:51.107Z,-7.62
2017-01-18T04:33:51.082Z,-7.7
2017-01-18T04:34:51.063Z,-7.7
2017-01-18T04:35:51.042Z,-7.69
2017-01-18T04:36:51.020Z,-7.67
2017-01-18T04:37:51.000Z,-7.73
2017-01-18T04:38:50.972Z,-7.72
2017-01-18T04:39:50.953Z,-7.77
2017-01-18T04:40:50.930Z,-7.77
2017-01-18T04:41:50.909Z,-7.91
2017-01-18T04:42:50.887Z,-7.93
2017-01-18T04:43:50.866Z,-7.91
2017-01-18T04:44:50.848Z,-7.94
2017-01-18T04:45:50.823Z,-8.02
2017-01-18T04:46:50.802Z,-7.96
2017-01-18T04:47:50.781Z,-8.1
2017-01-18T04:48:50.757Z,-8.06
2017-01-18T04:49:50.734Z,-8.07
2017-01-18T04:50:50.723Z,-8.07
2017-01-18T04:51:50.692Z,-8.06
2017-01-18T04:52:50.674Z,-8.12
2017-01-18T04:53:50.648Z,-8.09
2017-01-18T04:54:50.625Z,-8.16
2017-01-18T04:55:50.608Z,-8.16
2017-01-18T04:56:50.588Z,-8.09
2017-01-18T04:57:50.565Z,-8.21
2017-01-18T04:58:50.540Z,-8.21
2017-01-18T04:59:50.517Z,-8.21
2017-01-18T05:00:50.505Z,-8.26
2017-01-18T05:01:50.476Z,-8.34
2017-01-18T05:02:50.453Z,-8.31
2017-01-18T05:03:50.430Z,-8.41
2017-01-18T05:04:50.407Z,-8.41
2017-01-18T05:05:50.387Z,-8.44
2017-01-18T05:06:50.368Z,-8.46
2017-01-18T05:07:50.346Z,-8.45
2017-01-18T05:08:50.319Z,-8.48
2017-01-18T05:09:50.303Z,-8.49
2017-01-18T05:10:50.278Z,-8.46
2017-01-18T05:11:50.254Z,-8.46
2017-01-18T05:12:50.234Z,-8.48
2017-01-18T05:13:50.213Z,-8.59
2017-01-18T05:14:50.189Z,-8.69
2017-01-18T05:15:50.165Z,-8.74
2017-01-18T05:16:50.146Z,-8.78
2017-01-18T05:17:50.122Z,-8.86
2017-01-18T05:18:50.106Z,-8.9
2017-01-18T05:19:50.078Z,-9.01
2017-01-18T05:20:50.060Z,-9.22
2017-01-18T05:21:50.050Z,-9.23
2017-01-18T05:22:50.012Z,-9.4
2017-01-18T05:23:49.989Z,-9.47
2017-01-18T05:24:49.968Z,-9.55
2017-01-18T05:25:49.950Z,-9.63
2017-01-18T05:26:49.926Z,-9.76
2017-01-18T05:27:49.903Z,-9.83
2017-01-18T05:28:49.883Z,-9.91
2017-01-18T05:29:49.861Z,-10.1
2017-01-18T05:30:49.837Z,-10.12
2017-01-18T05:31:49.815Z,-10.2
2017-01-18T05:32:49.791Z,-10.26
2017-01-18T05:33:49.770Z,-10.36
2017-01-18T05:34:49.743Z,-10.4
2017-01-18T05:35:50.126Z,-10.51
2017-01-18T05:36:49.703Z,-10.55
2017-01-18T05:37:49.677Z,-10.66
2017-01-18T05:38:49.659Z,-10.85
2017-01-18T05:39:49.636Z,-10.79
2017-01-18T05:40:49.613Z,-10.88
2017-01-18T05:41:49.591Z,-10.88
2017-01-18T05:42:49.568Z,-10.92
2017-01-18T05:43:49.547Z,-11.03
2017-01-18T05:44:49.523Z,-11.2
2017-01-18T05:45:49.500Z,-11.16
2017-01-18T05:46:49.475Z,-11.31
2017-01-18T05:47:49.854Z,-11.31
2017-01-18T05:48:49.429Z,-11.37
2017-01-18T05:49:49.408Z,-11.48
2017-01-18T05:50:49.387Z,-11.55
2017-01-18T05:51:49.363Z,-11.52
2017-01-18T05:52:49.339Z,-11.6
2017-01-18T05:53:49.320Z,-11.68
2017-01-18T05:54:49.294Z,-11.7
2017-01-18T05:55:49.275Z,-11.8
2017-01-18T05:56:49.254Z,-11.84
2017-01-18T05:57:49.232Z,-11.89
2017-01-18T05:58:49.203Z,-11.9
2017-01-18T05:59:49.181Z,-11.84
2017-01-18T06:00:49.158Z,-11.87
2017-01-18T06:01:49.148Z,-11.89
2017-01-18T06:02:49.112Z,-11.89
2017-01-18T06:03:49.093Z,-11.97
2017-01-18T06:04:49.066Z,-11.91
2017-01-18T06:05:49.058Z,-11.97
2017-01-18T06:06:49.019Z,-11.93
2017-01-18T06:07:48.997Z,-11.95
2017-01-18T06:08:48.974Z,-12.07
2017-01-18T06:09:48.971Z,-12.11
2017-01-18T06:10:48.927Z,-12.22
2017-01-18T06:11:48.901Z,-12.3
2017-01-18T06:12:48.880Z,-12.3
2017-01-18T06:13:48.854Z,-12.37
2017-01-18T06:14:48.835Z,-12.54
2017-01-18T06:15:48.812Z,-12.48
2017-01-18T06:16:48.788Z,-12.5
2017-01-18T06:17:48.761Z,-12.58
2017-01-18T06:18:48.737Z,-12.54
2017-01-18T06:19:48.718Z,-12.68
2017-01-18T06:20:48.694Z,-12.69
2017-01-18T06:21:48.672Z,-12.66
2017-01-18T06:22:48.648Z,-12.72
2017-01-18T06:23:48.618Z,-12.68
2017-01-18T06:24:48.599Z,-12.73
2017-01-18T06:25:48.576Z,-12.76
2017-01-18T06:26:48.550Z,-12.72
2017-01-18T06:27:48.523Z,-12.74
2017-01-18T06:28:48.501Z,-12.69
2017-01-18T06:29:48.480Z,-12.69
2017-01-18T06:30:48.461Z,-12.66
2017-01-18T06:31:48.436Z,-12.66
2017-01-18T06:32:48.414Z,-12.66
2017-01-18T06:33:48.386Z,-12.72
2017-01-18T06:34:48.364Z,-12.74
2017-01-18T06:35:48.335Z,-12.77
2017-01-18T06:36:48.313Z,-12.79
2017-01-18T06:37:48.288Z,-12.74
2017-01-18T06:38:48.265Z,-12.73
2017-01-18T06:39:48.639Z,-12.69
2017-01-18T06:40:48.216Z,-12.72
2017-01-18T06:41:48.191Z,-12.72
2017-01-18T06:42:48.172Z,-12.69
2017-01-18T06:43:48.146Z,-12.55
2017-01-18T06:44:48.121Z,-12.59
2017-01-18T06:45:48.097Z,-12.56
2017-01-18T06:46:48.075Z,-12.59
2017-01-18T06:47:48.053Z,-12.59
2017-01-18T06:48:48.026Z,-12.58
2017-01-18T06:49:48.001Z,-12.69
2017-01-18T06:50:47.980Z,-12.72
2017-01-18T06:51:47.955Z,-12.74
2017-01-18T06:52:47.931Z,-12.72
2017-01-18T06:53:47.909Z,-12.66
2017-01-18T06:54:47.887Z,-12.61
2017-01-18T06:55:47.857Z,-12.61
2017-01-18T06:56:47.835Z,-12.66
2017-01-18T06:57:47.811Z,-12.61
2017-01-18T06:58:47.789Z,-12.62
2017-01-18T06:59:47.763Z,-12.73
2017-01-18T07:00:47.742Z,-12.72
2017-01-18T07:01:47.716Z,-12.64
2017-01-18T07:02:47.692Z,-12.66
2017-01-18T07:03:47.667Z,-12.69
2017-01-18T07:04:47.645Z,-12.8
2017-01-18T07:05:47.619Z,-12.86
2017-01-18T07:06:47.596Z,-12.9
2017-01-18T07:07:47.578Z,-12.91
2017-01-18T07:08:47.549Z,-12.95
2017-01-18T07:09:47.521Z,-12.94
2017-01-18T07:10:47.498Z,-13.05
2017-01-18T07:11:47.477Z,-13.18
2017-01-18T07:12:47.451Z,-13.16
2017-01-18T07:13:47.429Z,-13.25
2017-01-18T07:14:47.402Z,-13.33
2017-01-18T07:15:47.378Z,-13.35
2017-01-18T07:16:47.356Z,-13.3
2017-01-18T07:17:47.332Z,-13.27
2017-01-18T07:18:47.309Z,-13.33
2017-01-18T07:19:47.280Z,-13.29
2017-01-18T07:20:47.262Z,-13.36
2017-01-18T07:21:47.232Z,-13.37
2017-01-18T07:22:47.209Z,-13.54
2017-01-18T07:23:47.186Z,-13.35
2017-01-18T07:24:47.166Z,-13.47
2017-01-18T07:25:47.140Z,-13.48
2017-01-18T07:26:47.118Z,-13.51
2017-01-18T07:27:47.089Z,-13.5
2017-01-18T07:28:47.065Z,-13.5
2017-01-18T07:29:47.042Z,-13.46
2017-01-18T07:30:47.019Z,-13.53
2017-01-18T07:31:46.997Z,-13.53
2017-01-18T07:32:46.971Z,-13.51
2017-01-18T07:33:46.941Z,-13.5
2017-01-18T07:34:46.920Z,-13.47
2017-01-18T07:35:46.898Z,-13.46
2017-01-18T07:36:46.874Z,-13.4
2017-01-18T07:37:46.844Z,-13.47
2017-01-18T07:38:46.830Z,-13.43
2017-01-18T07:39:46.799Z,-13.32
2017-01-18T07:40:46.776Z,-13.36
2017-01-18T07:41:46.752Z,-13.29
2017-01-18T07:42:46.725Z,-13.32
2017-01-18T07:43:46.701Z,-13.33
2017-01-18T07:44:46.676Z,-13.19
2017-01-18T07:45:46.681Z,-13.35
2017-01-18T07:46:46.629Z,-13.3
2017-01-18T07:47:46.603Z,-13.29
2017-01-18T07:48:46.578Z,-13.24
2017-01-18T07:49:46.554Z,-13.29
2017-01-18T07:50:46.532Z,-13.35
2017-01-18T07:51:46.517Z,-13.3
2017-01-18T07:52:46.482Z,-13.24
2017-01-18T07:53:46.458Z,-13.21
2017-01-18T07:54:46.461Z,-13.25
2017-01-18T07:55:46.412Z,-13.29
2017-01-18T07:56:46.387Z,-13.19
2017-01-18T07:57:46.364Z,-13.19
2017-01-18T07:58:46.340Z,-13.36
2017-01-18T07:59:46.312Z,-13.36
2017-01-18T08:00:46.286Z,-13.35
2017-01-18T08:01:46.262Z,-13.36
2017-01-18T08:02:46.247Z,-13.33
2017-01-18T08:03:46.216Z,-13.29
2017-01-18T08:04:46.190Z,-13.32
2017-01-18T08:05:46.167Z,-13.21
2017-01-18T08:06:46.143Z,-13.21
2017-01-18T08:07:46.117Z,-13.18
2017-01-18T08:08:46.099Z,-13.09
2017-01-18T08:09:46.071Z,-13.15
2017-01-18T08:10:46.043Z,-13.14
2017-01-18T08:11:46.024Z,-13.09
2017-01-18T08:12:45.997Z,-13.11
2017-01-18T08:13:45.975Z,-13.07
2017-01-18T08:14:45.951Z,-13.04
2017-01-18T08:15:45.925Z,-12.9
2017-01-18T08:16:45.901Z,-12.9
2017-01-18T08:17:45.882Z,-12.94
2017-01-18T08:18:45.853Z,-12.93
2017-01-18T08:19:45.830Z,-12.86
2017-01-18T08:20:45.802Z,-12.82
2017-01-18T08:21:45.782Z,-12.79
2017-01-18T08:22:45.755Z,-12.82
2017-01-18T08:23:45.730Z,-12.82
2017-01-18T08:24:45.704Z,-12.68
2017-01-18T08:25:45.682Z,-12.69
2017-01-18T08:26:45.657Z,-12.66
2017-01-18T08:27:45.634Z,-12.74
2017-01-18T08:28:45.610Z,-12.68
2017-01-18T08:29:45.583Z,-12.56
2017-01-18T08:30:45.564Z,-12.52
2017-01-18T08:31:45.537Z,-12.38
2017-01-18T08:32:45.536Z,-12.41
2017-01-18T08:33:45.489Z,-12.27
2017-01-18T08:34:45.465Z,-12.22
2017-01-18T08:35:45.441Z,-12.3
2017-01-18T08:36:45.421Z,-12.22
2017-01-18T08:37:45.392Z,-12.16
2017-01-18T08:38:45.369Z,-12.22
2017-01-18T08:39:45.348Z,-12.13
2017-01-18T08:40:45.323Z,-12.13
2017-01-18T08:41:45.297Z,-12.13
2017-01-18T08:42:45.274Z,-12.22
2017-01-18T08:43:45.256Z,-12.19
2017-01-18T08:44:45.227Z,-12.1
2017-01-18T08:45:45.200Z,-12.13
2017-01-18T08:46:45.183Z,-12.02
2017-01-18T08:47:45.153Z,-11.89
2017-01-18T08:48:45.132Z,-11.93
2017-01-18T08:49:45.109Z,-12
2017-01-18T08:50:45.087Z,-12.04
2017-01-18T08:51:45.057Z,-11.93
2017-01-18T08:52:45.041Z,-11.95
2017-01-18T08:53:45.010Z,-11.9
2017-01-18T08:54:44.988Z,-11.87
2017-01-18T08:55:44.965Z,-11.89
2017-01-18T08:56:44.940Z,-11.83
2017-01-18T08:57:44.923Z,-11.83
2017-01-18T08:58:44.896Z,-11.73
2017-01-18T08:59:44.867Z,-11.73
2017-01-18T09:00:44.847Z,-11.66
2017-01-18T09:01:44.832Z,-11.54
2017-01-18T09:02:44.801Z,-11.5
2017-01-18T09:03:44.774Z,-11.51
2017-01-18T09:04:44.754Z,-11.41
2017-01-18T09:05:44.729Z,-11.37
2017-01-18T09:06:44.703Z,-11.37
2017-01-18T09:07:44.686Z,-11.44
2017-01-18T09:08:44.657Z,-11.33
2017-01-18T09:09:44.632Z,-11.3
2017-01-18T09:10:44.607Z,-11.26
2017-01-18T09:11:44.587Z,-11.21
2017-01-18T09:12:44.564Z,-11.2
2017-01-18T09:13:44.541Z,-11.3
2017-01-18T09:14:44.519Z,-11.21
2017-01-18T09:15:44.494Z,-11.27
2017-01-18T09:16:44.471Z,-11.16
2017-01-18T09:17:44.449Z,-11.08
2017-01-18T09:18:44.420Z,-11.06
2017-01-18T09:19:44.401Z,-11.08
2017-01-18T09:20:44.376Z,-10.98
2017-01-18T09:21:44.355Z,-11.06
2017-01-18T09:22:44.329Z,-11.08
2017-01-18T09:23:44.304Z,-10.95
2017-01-18T09:24:44.285Z,-10.92
2017-01-18T09:25:44.262Z,-10.94
2017-01-18T09:26:44.237Z,-10.87
2017-01-18T09:27:44.211Z,-10.83
2017-01-18T09:28:44.192Z,-10.88
2017-01-18T09:29:44.167Z,-10.91
2017-01-18T09:30:44.144Z,-10.81
2017-01-18T09:31:44.119Z,-10.79
2017-01-18T09:32:44.103Z,-10.85
2017-01-18T09:33:44.074Z,-10.78
2017-01-18T09:34:44.051Z,-10.7
2017-01-18T09:35:44.055Z,-10.59
2017-01-18T09:36:44.003Z,-10.61
2017-01-18T09:37:43.979Z,-10.59
2017-01-18T09:38:43.960Z,-10.55
2017-01-18T09:39:43.957Z,-10.49
2017-01-18T09:40:43.911Z,-10.52
2017-01-18T09:41:43.891Z,-10.47
2017-01-18T09:42:43.894Z,-10.44
2017-01-18T09:43:43.840Z,-10.44
2017-01-18T09:44:43.814Z,-10.4
2017-01-18T09:45:43.793Z,-10.23
2017-01-18T09:46:43.801Z,-10.23
2017-01-18T09:47:43.749Z,-10.27
2017-01-18T09:48:43.726Z,-10.27
2017-01-18T09:49:43.702Z,-10.26
2017-01-18T09:50:43.680Z,-10.23
2017-01-18T09:51:43.657Z,-10.1
2017-01-18T09:52:43.636Z,-10.07
2017-01-18T09:53:43.616Z,-10.12
2017-01-18T09:54:43.591Z,-10.09
2017-01-18T09:55:43.570Z,-9.99
2017-01-18T09:56:43.934Z,-9.98
2017-01-18T09:57:43.519Z,-10.07
2017-01-18T09:58:43.498Z,-9.91
2017-01-18T09:59:43.477Z,-9.89
2017-01-18T10:00:43.450Z,-9.78
2017-01-18T10:01:43.429Z,-9.81
2017-01-18T10:02:43.407Z,-9.8
2017-01-18T10:03:43.382Z,-9.78
2017-01-18T10:04:43.361Z,-9.8
2017-01-18T10:05:43.348Z,-9.76
2017-01-18T10:06:43.314Z,-9.62
2017-01-18T10:07:43.293Z,-9.68
2017-01-18T10:08:43.274Z,-9.56
2017-01-18T10:09:43.250Z,-9.65
2017-01-18T10:10:43.222Z,-9.62
2017-01-18T10:11:43.203Z,-9.62
2017-01-18T10:12:43.178Z,-9.66
2017-01-18T10:13:43.156Z,-9.52
2017-01-18T10:14:43.133Z,-9.5
2017-01-18T10:15:43.109Z,-9.52
2017-01-18T10:16:43.087Z,-9.44
2017-01-18T10:17:43.069Z,-9.52
2017-01-18T10:18:43.040Z,-9.52
2017-01-18T10:19:43.021Z,-9.45
2017-01-18T10:20:42.998Z,-9.36
2017-01-18T10:21:42.979Z,-9.4
2017-01-18T10:22:42.954Z,-9.41
2017-01-18T10:23:43.326Z,-9.34
2017-01-18T10:24:42.911Z,-9.23
2017-01-18T10:25:42.884Z,-9.2
2017-01-18T10:26:42.867Z,-9.2
2017-01-18T10:27:42.837Z,-9.16
2017-01-18T10:28:42.816Z,-9.04
2017-01-18T10:29:42.822Z,-9.04
2017-01-18T10:30:42.771Z,-9.05
2017-01-18T10:31:42.774Z,-8.99
2017-01-18T10:32:42.727Z,-8.98
2017-01-18T10:33:42.736Z,-8.96
2017-01-18T10:34:42.688Z,-8.81
2017-01-18T10:35:42.667Z,-8.77
2017-01-18T10:36:42.641Z,-8.65
2017-01-18T10:37:42.619Z,-8.57
2017-01-18T10:38:42.598Z,-8.44
2017-01-18T10:39:42.578Z,-8.36
2017-01-18T10:40:42.548Z,-8.28
2017-01-18T10:41:42.529Z,-8.15
2017-01-18T10:42:42.512Z,-8.18
2017-01-18T10:43:42.487Z,-8.1
2017-01-18T10:44:42.462Z,-7.88
2017-01-18T10:45:42.440Z,-7.87
2017-01-18T10:46:42.420Z,-7.73
2017-01-18T10:47:42.431Z,-7.7
2017-01-18T10:48:42.377Z,-7.72
2017-01-18T10:49:42.354Z,-7.72
2017-01-18T10:50:42.334Z,-7.69
2017-01-18T10:51:42.309Z,-7.67
2017-01-18T10:52:42.288Z,-7.59
2017-01-18T10:53:42.266Z,-7.51
2017-01-18T10:54:42.248Z,-7.45
2017-01-18T10:55:42.221Z,-7.28
2017-01-18T10:56:42.201Z,-7.27
2017-01-18T10:57:42.181Z,-7.16
2017-01-18T10:58:42.155Z,-7.1
2017-01-18T10:59:42.134Z,-7.07
2017-01-18T11:00:42.115Z,-6.95
2017-01-18T11:01:42.092Z,-6.94
2017-01-18T11:02:42.071Z,-6.91
2017-01-18T11:03:42.053Z,-6.84
2017-01-18T11:04:42.023Z,-6.94
2017-01-18T11:05:42.008Z,-6.98
2017-01-18T11:06:41.993Z,-6.88
2017-01-18T11:07:41.961Z,-6.98
2017-01-18T11:08:41.941Z,-6.8
2017-01-18T11:09:41.919Z,-6.89
2017-01-18T11:10:41.900Z,-6.89
2017-01-18T11:11:41.876Z,-6.94
2017-01-18T11:12:41.855Z,-6.87
2017-01-18T11:13:41.832Z,-6.89
2017-01-18T11:14:41.808Z,-6.91
2017-01-18T11:15:41.791Z,-6.89
2017-01-18T11:16:41.781Z,-6.94
2017-01-18T11:17:41.745Z,-6.8
2017-01-18T11:18:41.725Z,-6.76
2017-01-18T11:19:41.703Z,-6.8
2017-01-18T11:20:41.683Z,-6.78
2017-01-18T11:21:41.660Z,-6.81
2017-01-18T11:22:41.646Z,-6.76
2017-01-18T11:23:41.623Z,-6.78
2017-01-18T11:24:41.599Z,-6.78
2017-01-18T11:25:41.577Z,-6.78
2017-01-18T11:26:41.554Z,-6.74
2017-01-18T11:27:41.532Z,-6.74
2017-01-18T11:28:41.514Z,-6.7
2017-01-18T11:29:41.490Z,-6.7
2017-01-18T11:30:41.472Z,-6.73
2017-01-18T11:31:41.451Z,-6.65
2017-01-18T11:32:41.424Z,-6.74
2017-01-18T11:33:41.406Z,-6.8
2017-01-18T11:34:41.385Z,-6.74
2017-01-18T11:35:41.368Z,-6.67
2017-01-18T11:36:41.344Z,-6.71
2017-01-18T11:37:41.326Z,-6.68
2017-01-18T11:38:41.301Z,-6.71
2017-01-18T11:39:41.284Z,-6.68
2017-01-18T11:40:41.257Z,-6.59
2017-01-18T11:41:41.237Z,-6.58
2017-01-18T11:42:41.219Z,-6.59
2017-01-18T11:43:41.190Z,-6.67
2017-01-18T11:44:41.172Z,-6.59
2017-01-18T11:45:41.155Z,-6.58
2017-01-18T11:46:41.132Z,-6.63
2017-01-18T11:47:41.112Z,-6.59
2017-01-18T11:48:41.086Z,-6.65
2017-01-18T11:49:41.066Z,-6.67
2017-01-18T11:50:41.047Z,-6.67
2017-01-18T11:51:41.026Z,-6.68
2017-01-18T11:52:41.003Z,-6.76
2017-01-18T11:53:40.985Z,-6.71
2017-01-18T11:54:40.960Z,-6.8
2017-01-18T11:55:40.941Z,-6.65
2017-01-18T11:56:40.948Z,-6.68
2017-01-18T11:57:40.896Z,-6.67
2017-01-18T11:58:40.882Z,-6.67
2017-01-18T11:59:40.853Z,-6.63
2017-01-18T12:00:40.880Z,-6.6
2017-01-18T12:01:40.812Z,-6.58
2017-01-18T12:02:40.792Z,-6.58
2017-01-18T12:03:40.776Z,-6.58
2017-01-18T12:04:40.747Z,-6.44
2017-01-18T12:05:40.727Z,-6.48
2017-01-18T12:06:40.709Z,-6.48
2017-01-18T12:07:40.688Z,-6.37
2017-01-18T12:08:40.665Z,-6.43
2017-01-18T12:09:40.644Z,-6.4
2017-01-18T12:10:40.620Z,-6.46
2017-01-18T12:11:40.602Z,-6.37
2017-01-18T12:12:40.580Z,-6.36
2017-01-18T12:13:40.566Z,-6.43
2017-01-18T12:14:40.538Z,-6.34
2017-01-18T12:15:40.514Z,-6.41
2017-01-18T12:16:40.893Z,-6.46
2017-01-18T12:17:40.469Z,-6.52
2017-01-18T12:18:40.805Z,-6.6
2017-01-18T12:19:40.430Z,-6.6
2017-01-18T12:20:40.408Z,-6.67
2017-01-18T12:21:40.395Z,-6.68
2017-01-18T12:22:40.374Z,-6.71
2017-01-18T12:23:40.348Z,-6.67
2017-01-18T12:24:40.329Z,-6.71
2017-01-18T12:25:40.313Z,-6.7
2017-01-18T12:26:40.282Z,-6.68
2017-01-18T12:27:40.265Z,-6.73
2017-01-18T12:28:40.639Z,-6.67
2017-01-18T12:29:40.621Z,-6.68
2017-01-18T12:30:40.202Z,-6.52
2017-01-18T12:31:40.179Z,-6.68
2017-01-18T12:32:40.160Z,-6.73
2017-01-18T12:33:40.141Z,-6.71
2017-01-18T12:34:40.114Z,-6.6
2017-01-18T12:35:40.095Z,-6.52
2017-01-18T12:36:40.075Z,-6.55
2017-01-18T12:37:40.051Z,-6.51
2017-01-18T12:38:40.030Z,-6.55
2017-01-18T12:39:40.011Z,-6.55
2017-01-18T12:40:39.991Z,-6.55
2017-01-18T12:41:39.965Z,-6.6
2017-01-18T12:42:39.948Z,-6.63
2017-01-18T12:43:39.928Z,-6.71
2017-01-18T12:44:39.908Z,-6.7
2017-01-18T12:45:39.885Z,-6.71
2017-01-18T12:46:39.861Z,-6.8
2017-01-18T12:47:39.839Z,-6.84